createdAt,value
2018-11-20T03:38:11.016Z,1004.81
2018-11-20T03:39:10.972Z,1004.76
2018-11-20T03:40:10.975Z,1004.70
2018-11-20T03:41:10.981Z,1004.79
2018-11-20T03:42:10.990Z,1004.74
2018-11-20T03:43:10.994Z,1004.69
2018-11-20T03:44:11.001Z,1004.63
2018-11-20T03:45:11.007Z,1004.66
2018-11-20T03:46:11.019Z,1004.68
2018-11-20T03:47:11.022Z,1004.71
2018-11-20T03:48:11.037Z,1004.65
2018-11-20T03:49:11.041Z,1004.71
2018-11-20T03:50:11.048Z,1004.66
2018-11-20T03:51:11.059Z,1004.67
2018-11-20T03:52:11.063Z,1004.67
2018-11-20T03:53:11.072Z,1004.70
2018-11-20T03:54:11.081Z,1004.68
2018-11-20T03:55:11.092Z,1004.59
2018-11-20T03:56:11.100Z,1004.62
2018-11-20T03:57:11.111Z,1004.65
2018-11-20T03:58:11.120Z,1004.56
2018-11-20T03:59:11.137Z,1004.62
2018-11-20T04:00:11.145Z,1004.58
2018-11-20T04:01:11.152Z,1004.59
2018-11-20T04:02:11.160Z,1004.66
2018-11-20T04:03:11.188Z,1004.56
2018-11-20T04:04:11.178Z,1004.59
2018-11-20T04:05:11.195Z,1004.52
2018-11-20T04:06:11.213Z,1004.48
2018-11-20T04:07:11.210Z,1004.45
2018-11-20T04:08:11.219Z,1004.62
2018-11-20T04:09:11.239Z,1004.50
2018-11-20T04:10:11.242Z,1004.50
2018-11-20T04:11:11.249Z,1004.45
2018-11-20T04:12:11.264Z,1004.46
2018-11-20T04:13:11.278Z,1004.35
2018-11-20T04:14:11.282Z,1004.41
2018-11-20T04:15:11.293Z,1004.38
2018-11-20T04:16:11.301Z,1004.39
2018-11-20T04:17:11.311Z,1004.36
2018-11-20T04:18:11.326Z,1004.36
2018-11-20T04:19:11.332Z,1004.41
2018-11-20T04:20:11.344Z,1004.38
2018-11-20T04:21:11.353Z,1004.41
2018-11-20T04:22:11.362Z,1004.43
2018-11-20T04:23:11.379Z,1004.35
2018-11-20T04:24:11.384Z,1004.37
2018-11-20T04:25:11.397Z,1004.30
2018-11-20T04:26:11.407Z,1004.27
2018-11-20T04:27:11.417Z,1004.28
2018-11-20T04:28:11.432Z,1004.31
2018-11-20T04:29:11.441Z,1004.31
2018-11-20T04:30:11.450Z,1004.35
2018-11-20T04:31:11.463Z,1004.31
2018-11-20T04:32:11.468Z,1004.34
2018-11-20T04:33:11.481Z,1004.31
2018-11-20T04:34:11.496Z,1004.30
2018-11-20T04:35:11.505Z,1004.33
2018-11-20T04:36:11.524Z,1004.33
2018-11-20T04:37:11.527Z,1004.22
2018-11-20T04:38:11.539Z,1004.20
2018-11-20T04:39:11.555Z,1004.25
2018-11-20T04:40:11.561Z,1004.27
2018-11-20T04:41:11.585Z,1004.18
2018-11-20T04:42:11.578Z,1004.12
2018-11-20T04:43:11.587Z,1004.16
2018-11-20T04:44:11.601Z,1004.13
2018-11-20T04:45:11.613Z,1004.10
2018-11-20T04:46:11.622Z,1004.09
2018-11-20T04:47:11.637Z,1004.13
2018-11-20T04:48:11.647Z,1004.08
2018-11-20T04:49:11.661Z,1003.98
2018-11-20T04:50:11.665Z,1004.03
2018-11-20T04:51:11.676Z,1003.93
2018-11-20T04:52:11.687Z,1003.95
2018-11-20T04:53:11.697Z,1003.99
2018-11-20T04:54:11.727Z,1003.97
2018-11-20T04:55:11.723Z,1004.02
2018-11-20T04:56:11.733Z,1003.96
2018-11-20T04:57:11.741Z,1004.05
2018-11-20T04:58:11.754Z,1004.03
2018-11-20T04:59:11.764Z,1003.89
2018-11-20T05:00:11.782Z,1003.93
2018-11-20T05:01:11.789Z,1003.93
2018-11-20T05:02:11.797Z,1003.99
2018-11-20T05:03:11.806Z,1003.96
2018-11-20T05:04:11.828Z,1003.94
2018-11-20T05:05:11.830Z,1003.90
2018-11-20T05:06:11.839Z,1003.94
2018-11-20T05:07:11.848Z,1003.91
2018-11-20T05:08:11.865Z,1003.90
2018-11-20T05:09:11.871Z,1003.86
2018-11-20T05:10:11.884Z,1003.87
2018-11-20T05:11:11.893Z,1003.85
2018-11-20T05:12:11.923Z,1003.92
2018-11-20T05:13:11.929Z,1003.93
2018-11-20T05:14:11.923Z,1003.94
2018-11-20T05:15:11.957Z,1003.88
2018-11-20T05:16:11.948Z,1003.85
2018-11-20T05:17:11.964Z,1003.91
2018-11-20T05:18:11.970Z,1003.85
2018-11-20T05:19:11.982Z,1003.82
2018-11-20T05:20:11.995Z,1003.95
2018-11-20T05:21:12.001Z,1003.89
2018-11-20T05:22:12.009Z,1003.92
2018-11-20T05:23:12.024Z,1003.79
2018-11-20T05:24:12.033Z,1003.81
2018-11-20T05:25:12.046Z,1003.87
2018-11-20T05:26:12.057Z,1003.82
2018-11-20T05:27:12.069Z,1003.81
2018-11-20T05:28:12.092Z,1003.87
2018-11-20T05:29:12.093Z,1003.84
2018-11-20T05:30:12.101Z,1003.86
2018-11-20T05:31:12.213Z,1003.84
2018-11-20T05:32:12.127Z,1003.85
2018-11-20T05:33:12.131Z,1003.81
2018-11-20T05:34:12.140Z,1003.89
2018-11-20T05:35:12.158Z,1003.81
2018-11-20T05:36:12.168Z,1003.84
2018-11-20T05:37:12.177Z,1003.81
2018-11-20T05:38:12.188Z,1003.90
2018-11-20T05:39:12.197Z,1003.99
2018-11-20T05:40:12.216Z,1003.91
2018-11-20T05:41:12.234Z,1003.83
2018-11-20T05:42:12.232Z,1003.89
2018-11-20T05:43:12.248Z,1003.86
2018-11-20T05:44:12.255Z,1003.83
2018-11-20T05:45:12.270Z,1003.81
2018-11-20T05:46:12.276Z,1003.84
2018-11-20T05:47:12.286Z,1003.84
2018-11-20T05:48:12.297Z,1003.86
2018-11-20T05:49:12.307Z,1003.88
2018-11-20T05:50:12.318Z,1003.85
2018-11-20T05:51:12.325Z,1003.83
2018-11-20T05:52:12.355Z,1003.83
2018-11-20T05:53:12.351Z,1003.90
2018-11-20T05:54:12.368Z,1003.89
2018-11-20T05:55:12.371Z,1003.83
2018-11-20T05:56:12.383Z,1003.80
2018-11-20T05:57:12.396Z,1003.89
2018-11-20T05:58:12.490Z,1003.81
2018-11-20T05:59:12.417Z,1003.92
2018-11-20T06:00:12.432Z,1003.76
2018-11-20T06:01:12.444Z,1003.72
2018-11-20T06:02:12.452Z,1003.80
2018-11-20T06:03:12.461Z,1003.78
2018-11-20T06:04:12.471Z,1003.89
2018-11-20T06:05:12.483Z,1003.77
2018-11-20T06:06:12.545Z,1003.76
2018-11-20T06:07:12.513Z,1003.75
2018-11-20T06:08:12.518Z,1003.77
2018-11-20T06:09:12.523Z,1003.67
2018-11-20T06:10:12.541Z,1003.74
2018-11-20T06:11:12.550Z,1003.76
2018-11-20T06:12:12.562Z,1003.76
2018-11-20T06:13:12.575Z,1003.72
2018-11-20T06:14:12.591Z,1003.76
2018-11-20T06:15:12.591Z,1003.68
2018-11-20T06:16:12.602Z,1003.68
2018-11-20T06:17:12.612Z,1003.64
2018-11-20T06:18:12.627Z,1003.67
2018-11-20T06:19:12.637Z,1003.72
2018-11-20T06:20:12.645Z,1003.73
2018-11-20T06:21:12.662Z,1003.72
2018-11-20T06:22:12.669Z,1003.75
2018-11-20T06:23:12.679Z,1003.66
2018-11-20T06:24:12.720Z,1003.62
2018-11-20T06:25:12.722Z,1003.67
2018-11-20T06:26:12.715Z,1003.65
2018-11-20T06:27:12.750Z,1003.61
2018-11-20T06:28:12.764Z,1003.68
2018-11-20T06:29:12.785Z,1003.53
2018-11-20T06:30:12.757Z,1003.55
2018-11-20T06:31:12.767Z,1003.53
2018-11-20T06:32:12.781Z,1003.50
2018-11-20T06:33:12.790Z,1003.53
2018-11-20T06:34:12.817Z,1003.51
2018-11-20T06:35:12.812Z,1003.58
2018-11-20T06:36:12.820Z,1003.52
2018-11-20T06:37:12.839Z,1003.53
2018-11-20T06:38:12.847Z,1003.48
2018-11-20T06:39:12.855Z,1003.59
2018-11-20T06:40:12.868Z,1003.54
2018-11-20T06:41:12.924Z,1003.51
2018-11-20T06:42:12.916Z,1003.48
2018-11-20T06:43:12.897Z,1003.48
2018-11-20T06:44:12.915Z,1003.52
2018-11-20T06:45:12.927Z,1003.50
2018-11-20T06:46:12.942Z,1003.51
2018-11-20T06:47:13.007Z,1003.53
2018-11-20T06:48:12.973Z,1003.49
2018-11-20T06:49:12.972Z,1003.41
2018-11-20T06:50:12.987Z,1003.51
2018-11-20T06:51:12.996Z,1003.44
2018-11-20T06:52:13.006Z,1003.47
2018-11-20T06:53:13.189Z,1003.48
2018-11-20T06:54:13.028Z,1003.54
2018-11-20T06:55:13.036Z,1003.50
2018-11-20T06:56:13.044Z,1003.50
2018-11-20T06:57:13.060Z,1003.50
2018-11-20T06:58:13.077Z,1003.57
2018-11-20T06:59:13.076Z,1003.53
2018-11-20T07:00:13.090Z,1003.52
2018-11-20T07:01:13.106Z,1003.50
2018-11-20T07:02:13.114Z,1003.52
2018-11-20T07:03:13.129Z,1003.48
2018-11-20T07:04:13.140Z,1003.51
2018-11-20T07:05:13.147Z,1003.51
2018-11-20T07:06:13.158Z,1003.48
2018-11-20T07:07:13.295Z,1003.50
2018-11-20T07:08:13.324Z,1003.50
2018-11-20T07:09:13.189Z,1003.55
2018-11-20T07:10:13.204Z,1003.55
2018-11-20T07:11:13.212Z,1003.49
2018-11-20T07:12:13.218Z,1003.50
2018-11-20T07:13:13.236Z,1003.46
2018-11-20T07:14:13.241Z,1003.44
2018-11-20T07:15:13.337Z,1003.43
2018-11-20T07:16:13.446Z,1003.49
2018-11-20T07:17:13.276Z,1003.41
2018-11-20T07:18:13.289Z,1003.50
2018-11-20T07:19:13.312Z,1003.40
2018-11-20T07:20:13.316Z,1003.42
2018-11-20T07:21:13.347Z,1003.42
2018-11-20T07:22:13.335Z,1003.48
2018-11-20T07:23:13.351Z,1003.44
2018-11-20T07:24:13.369Z,1003.58
2018-11-20T07:25:13.364Z,1003.50
2018-11-20T07:26:13.385Z,1003.54
2018-11-20T07:27:13.411Z,1003.57
2018-11-20T07:28:13.407Z,1003.64
2018-11-20T07:29:13.407Z,1003.55
2018-11-20T07:30:13.552Z,1003.57
2018-11-20T07:31:13.474Z,1003.59
2018-11-20T07:32:13.438Z,1003.58
2018-11-20T07:33:13.449Z,1003.64
2018-11-20T07:34:13.481Z,1003.50
2018-11-20T07:35:13.482Z,1003.52
2018-11-20T07:36:13.538Z,1003.56
2018-11-20T07:37:13.692Z,1003.52
2018-11-20T07:38:13.505Z,1003.52
2018-11-20T07:39:13.520Z,1003.56
2018-11-20T07:40:13.531Z,1003.39
2018-11-20T07:41:13.551Z,1003.44
2018-11-20T07:42:13.561Z,1003.57
2018-11-20T07:43:13.582Z,1003.51
2018-11-20T07:44:13.586Z,1003.38
2018-11-20T07:45:13.589Z,1003.33
2018-11-20T07:46:13.602Z,1003.43
2018-11-20T07:47:13.601Z,1003.51
2018-11-20T07:48:13.624Z,1003.35
2018-11-20T07:49:13.621Z,1003.39
2018-11-20T07:50:13.640Z,1003.34
2018-11-20T07:51:13.666Z,1003.32
2018-11-20T07:52:13.664Z,1003.37
2018-11-20T07:53:13.691Z,1003.28
2018-11-20T07:54:13.684Z,1003.34
2018-11-20T07:55:13.730Z,1003.39
2018-11-20T07:56:13.811Z,1003.52
2018-11-20T07:57:13.711Z,1003.29
2018-11-20T07:58:13.724Z,1003.38
2018-11-20T07:59:13.742Z,1003.42
2018-11-20T08:00:13.750Z,1003.40
2018-11-20T08:01:13.778Z,1003.32
2018-11-20T08:02:13.796Z,1003.31
2018-11-20T08:03:13.782Z,1003.30
2018-11-20T08:04:13.792Z,1003.33
2018-11-20T08:05:13.802Z,1003.25
2018-11-20T08:06:13.813Z,1003.41
2018-11-20T08:07:13.829Z,1003.35
2018-11-20T08:08:13.851Z,1003.39
2018-11-20T08:09:13.843Z,1003.28
2018-11-20T08:10:13.890Z,1003.32
2018-11-20T08:11:13.877Z,1003.30
2018-11-20T08:12:13.883Z,1003.32
2018-11-20T08:13:13.893Z,1003.32
2018-11-20T08:14:13.902Z,1003.26
2018-11-20T08:15:13.938Z,1003.26
2018-11-20T08:16:13.928Z,1003.26
2018-11-20T08:17:13.939Z,1003.23
2018-11-20T08:18:13.953Z,1003.25
2018-11-20T08:19:13.962Z,1003.25
2018-11-20T08:20:13.973Z,1003.21
2018-11-20T08:21:13.978Z,1003.14
2018-11-20T08:22:14.001Z,1003.27
2018-11-20T08:23:13.999Z,1003.20
2018-11-20T08:24:14.015Z,1003.17
2018-11-20T08:25:14.042Z,1003.23
2018-11-20T08:26:14.187Z,1003.14
2018-11-20T08:27:14.044Z,1003.16
2018-11-20T08:28:14.057Z,1003.28
2018-11-20T08:29:14.071Z,1003.27
2018-11-20T08:30:14.086Z,1003.20
2018-11-20T08:31:14.096Z,1003.21
2018-11-20T08:32:14.108Z,1003.21
2018-11-20T08:33:14.125Z,1003.29
2018-11-20T08:34:14.176Z,1003.18
2018-11-20T08:35:14.192Z,1003.16
2018-11-20T08:36:14.145Z,1003.20
2018-11-20T08:37:14.204Z,1003.25
2018-11-20T08:38:14.171Z,1003.23
2018-11-20T08:39:14.183Z,1003.19
2018-11-20T08:40:14.194Z,1003.25
2018-11-20T08:41:14.205Z,1003.26
2018-11-20T08:42:14.285Z,1003.17
2018-11-20T08:43:14.225Z,1003.20
2018-11-20T08:44:14.252Z,1003.25
2018-11-20T08:45:14.258Z,1003.18
2018-11-20T08:46:14.259Z,1003.18
2018-11-20T08:47:14.264Z,1003.17
2018-11-20T08:48:14.345Z,1003.20
2018-11-20T08:49:14.289Z,1003.21
2018-11-20T08:50:14.315Z,1003.21
2018-11-20T08:51:14.313Z,1003.02
2018-11-20T08:52:14.326Z,1003.28
2018-11-20T08:53:14.339Z,1003.18
2018-11-20T08:54:14.348Z,1003.21
2018-11-20T08:55:14.358Z,1003.16
2018-11-20T08:56:14.380Z,1003.25
2018-11-20T08:57:14.381Z,1003.26
2018-11-20T08:58:14.393Z,1003.28
2018-11-20T08:59:14.400Z,1003.28
2018-11-20T09:00:14.419Z,1003.18
2018-11-20T09:01:14.429Z,1003.19
2018-11-20T09:02:14.545Z,1003.21
2018-11-20T09:03:14.583Z,1003.14
2018-11-20T09:04:14.471Z,1003.21
2018-11-20T09:05:14.474Z,1003.18
2018-11-20T09:06:14.480Z,1003.22
2018-11-20T09:07:14.500Z,1003.18
2018-11-20T09:08:14.506Z,1003.14
2018-11-20T09:09:14.520Z,1003.18
2018-11-20T09:10:14.545Z,1003.10
2018-11-20T09:11:14.548Z,1003.17
2018-11-20T09:12:14.553Z,1003.18
2018-11-20T09:13:14.560Z,1003.21
2018-11-20T09:14:14.571Z,1003.20
2018-11-20T09:15:14.583Z,1003.21
2018-11-20T09:16:14.594Z,1003.25
2018-11-20T09:17:14.602Z,1003.24
2018-11-20T09:18:14.625Z,1003.23
2018-11-20T09:19:14.626Z,1003.21
2018-11-20T09:20:14.691Z,1003.20
2018-11-20T09:21:14.738Z,1003.14
2018-11-20T09:22:14.661Z,1003.14
2018-11-20T09:23:14.677Z,1003.14
2018-11-20T09:24:14.702Z,1003.14
2018-11-20T09:25:14.692Z,1003.20
2018-11-20T09:26:14.710Z,1003.18
2018-11-20T09:27:14.721Z,1003.19
2018-11-20T09:28:14.731Z,1003.12
2018-11-20T09:29:14.744Z,1003.17
2018-11-20T09:30:14.755Z,1003.18
2018-11-20T09:31:14.757Z,1003.14
2018-11-20T09:32:14.776Z,1003.14
2018-11-20T09:33:14.795Z,1003.11
2018-11-20T09:34:14.843Z,1003.10
2018-11-20T09:35:15.055Z,1003.12
2018-11-20T09:36:14.826Z,1003.11
2018-11-20T09:37:14.839Z,1003.08
2018-11-20T09:38:14.849Z,1003.09
2018-11-20T09:39:14.850Z,1003.11
2018-11-20T09:40:14.865Z,1003.05
2018-11-20T09:41:14.882Z,1003.05
2018-11-20T09:42:14.888Z,1003.06
2018-11-20T09:43:14.898Z,1003.02
2018-11-20T09:44:14.908Z,1003.01
2018-11-20T09:45:14.932Z,1002.99
2018-11-20T09:46:14.948Z,1002.97
2018-11-20T09:47:14.946Z,1002.97
2018-11-20T09:48:14.960Z,1003.07
2018-11-20T09:49:14.962Z,1003.05
2018-11-20T09:50:14.976Z,1003.11
2018-11-20T09:51:14.990Z,1003.04
2018-11-20T09:52:15.046Z,1003.04
2018-11-20T09:53:15.009Z,1003.02
2018-11-20T09:54:15.084Z,1003.08
2018-11-20T09:55:15.033Z,1002.95
2018-11-20T09:56:15.046Z,1003.04
2018-11-20T09:57:15.059Z,1002.97
2018-11-20T09:58:15.076Z,1003.03
2018-11-20T09:59:15.107Z,1002.92
2018-11-20T10:00:15.092Z,1002.97
2018-11-20T10:01:15.101Z,1002.90
2018-11-20T10:02:15.112Z,1002.85
2018-11-20T10:03:15.126Z,1002.98
2018-11-20T10:04:15.137Z,1002.89
2018-11-20T10:05:15.145Z,1002.96
2018-11-20T10:06:15.159Z,1002.98
2018-11-20T10:07:15.216Z,1003.02
2018-11-20T10:08:15.207Z,1002.97
2018-11-20T10:09:15.200Z,1002.93
2018-11-20T10:10:15.230Z,1002.91
2018-11-20T10:11:15.216Z,1002.95
2018-11-20T10:12:15.233Z,1002.88
2018-11-20T10:13:15.242Z,1002.81
2018-11-20T10:14:15.372Z,1002.91
2018-11-20T10:15:15.295Z,1002.76
2018-11-20T10:16:15.275Z,1002.82
2018-11-20T10:17:15.285Z,1002.77
2018-11-20T10:18:15.296Z,1002.75
2018-11-20T10:19:15.310Z,1002.83
2018-11-20T10:20:15.319Z,1002.85
2018-11-20T10:21:15.344Z,1002.84
2018-11-20T10:22:15.344Z,1002.84
2018-11-20T10:23:15.359Z,1002.84
2018-11-20T10:24:15.364Z,1002.79
2018-11-20T10:25:15.391Z,1002.81
2018-11-20T10:26:15.547Z,1002.88
2018-11-20T10:27:15.399Z,1002.76
2018-11-20T10:28:15.417Z,1002.77
2018-11-20T10:29:15.427Z,1002.86
2018-11-20T10:30:15.434Z,1002.84
2018-11-20T10:31:15.453Z,1002.79
2018-11-20T10:32:15.467Z,1002.70
2018-11-20T10:33:15.471Z,1002.70
2018-11-20T10:34:15.550Z,1002.78
2018-11-20T10:35:15.494Z,1002.67
2018-11-20T10:36:15.505Z,1002.67
2018-11-20T10:37:15.523Z,1002.69
2018-11-20T10:38:15.529Z,1002.66
2018-11-20T10:39:15.539Z,1002.67
2018-11-20T10:40:15.585Z,1002.56
2018-11-20T10:41:15.562Z,1002.63
2018-11-20T10:42:15.580Z,1002.66
2018-11-20T10:43:15.588Z,1002.56
2018-11-20T10:44:15.607Z,1002.56
2018-11-20T10:45:15.643Z,1002.57
2018-11-20T10:46:15.724Z,1002.58
2018-11-20T10:47:15.634Z,1002.60
2018-11-20T10:48:15.642Z,1002.59
2018-11-20T10:49:15.664Z,1002.49
2018-11-20T10:50:15.688Z,1002.48
2018-11-20T10:51:15.691Z,1002.57
2018-11-20T10:52:15.699Z,1002.49
2018-11-20T10:53:15.713Z,1002.46
2018-11-20T10:54:15.716Z,1002.41
2018-11-20T10:55:15.726Z,1002.41
2018-11-20T10:56:15.735Z,1002.44
2018-11-20T10:57:15.758Z,1002.42
2018-11-20T10:58:15.764Z,1002.43
2018-11-20T10:59:15.771Z,1002.51
2018-11-20T11:00:15.785Z,1002.33
2018-11-20T11:01:15.798Z,1002.40
2018-11-20T11:02:15.807Z,1002.35
2018-11-20T11:03:15.825Z,1002.35
2018-11-20T11:04:15.914Z,1002.34
2018-11-20T11:05:15.848Z,1002.33
2018-11-20T11:06:15.893Z,1002.25
2018-11-20T11:07:15.932Z,1002.31
2018-11-20T11:08:15.970Z,1002.30
2018-11-20T11:09:15.896Z,1002.29
2018-11-20T11:10:15.912Z,1002.22
2018-11-20T11:11:15.931Z,1002.21
2018-11-20T11:12:16.081Z,1002.16
2018-11-20T11:13:15.947Z,1002.16
2018-11-20T11:14:15.960Z,1002.18
2018-11-20T11:15:15.968Z,1002.16
2018-11-20T11:16:15.977Z,1002.19
2018-11-20T11:17:15.988Z,1002.13
2018-11-20T11:18:16.048Z,1002.12
2018-11-20T11:19:16.007Z,1002.14
2018-11-20T11:20:16.037Z,1002.12
2018-11-20T11:21:16.045Z,1002.10
2018-11-20T11:22:16.049Z,1002.15
2018-11-20T11:23:16.063Z,1002.12
2018-11-20T11:24:16.082Z,1002.18
2018-11-20T11:25:16.084Z,1002.20
2018-11-20T11:26:16.100Z,1002.21
2018-11-20T11:27:16.113Z,1002.12
2018-11-20T11:28:16.119Z,1002.14
2018-11-20T11:29:16.138Z,1002.17
2018-11-20T11:30:16.145Z,1002.21
2018-11-20T11:31:16.161Z,1002.21
2018-11-20T11:32:16.183Z,1002.16
2018-11-20T11:33:16.186Z,1002.13
2018-11-20T11:34:16.193Z,1002.16
2018-11-20T11:35:16.208Z,1002.20
2018-11-20T11:36:16.255Z,1002.13
2018-11-20T11:37:16.233Z,1002.15
2018-11-20T11:38:16.250Z,1002.12
2018-11-20T11:39:16.251Z,1002.07
2018-11-20T11:40:16.267Z,1002.16
2018-11-20T11:41:16.322Z,1002.15
2018-11-20T11:42:16.301Z,1002.21
2018-11-20T11:43:16.305Z,1002.14
2018-11-20T11:44:16.311Z,1002.14
2018-11-20T11:45:16.327Z,1002.17
2018-11-20T11:46:16.338Z,1002.11
2018-11-20T11:47:16.983Z,1002.09
2018-11-20T11:48:16.399Z,1002.09
2018-11-20T11:49:16.376Z,1002.08
2018-11-20T11:50:16.387Z,1002.12
2018-11-20T11:51:16.399Z,1002.17
2018-11-20T11:52:16.467Z,1002.11
2018-11-20T11:53:16.422Z,1002.14
2018-11-20T11:54:16.451Z,1002.16
2018-11-20T11:55:16.452Z,1002.09
2018-11-20T11:56:16.457Z,1002.18
2018-11-20T11:57:16.503Z,1002.09
2018-11-20T11:58:18.725Z,1002.07
2018-11-20T11:59:16.564Z,1002.06
2018-11-20T12:00:16.519Z,1002.11
2018-11-20T12:01:16.565Z,1002.04
2018-11-20T12:03:16.559Z,1002.00
2018-11-20T12:04:16.589Z,1002.00
2018-11-20T12:05:16.578Z,1001.98
2018-11-20T12:06:16.638Z,1002.06
2018-11-20T12:07:16.637Z,1001.96
2018-11-20T12:08:16.654Z,1001.96
2018-11-20T12:09:16.661Z,1001.96
2018-11-20T12:10:16.677Z,1001.98
2018-11-20T12:11:16.700Z,1002.03
2018-11-20T12:12:16.708Z,1001.97
2018-11-20T12:13:37.732Z,1002.08
2018-11-20T12:14:16.723Z,1002.00
2018-11-20T12:15:16.730Z,1002.01
2018-11-20T12:16:16.701Z,1001.91
2018-11-20T12:17:16.788Z,1001.88
2018-11-20T12:18:16.902Z,1002.03
2018-11-20T12:19:16.764Z,1002.04
2018-11-20T12:20:16.760Z,1002.03
2018-11-20T12:21:16.834Z,1001.95
2018-11-20T12:22:17.646Z,1002.01
2018-11-20T12:23:16.823Z,1001.93
2018-11-20T12:24:16.878Z,1001.85
2018-11-20T12:25:21.633Z,1001.94
2018-11-20T12:26:16.887Z,1001.90
2018-11-20T12:27:16.889Z,1001.83
2018-11-20T12:28:16.956Z,1001.80
2018-11-20T12:29:17.121Z,1001.77
2018-11-20T12:30:16.935Z,1001.78
2018-11-20T12:31:16.990Z,1001.76
2018-11-20T12:32:16.960Z,1001.74
2018-11-20T12:33:16.915Z,1001.78
2018-11-20T12:34:18.945Z,1001.86
2018-11-20T12:35:16.939Z,1001.82
2018-11-20T12:36:16.954Z,1001.78
2018-11-20T12:37:16.964Z,1001.78
2018-11-20T12:38:17.233Z,1001.81
2018-11-20T12:39:16.987Z,1001.78
2018-11-20T12:40:17.000Z,1001.91
2018-11-20T12:41:17.016Z,1001.82
2018-11-20T12:42:17.026Z,1001.86
2018-11-20T12:43:18.254Z,1001.78
2018-11-20T12:44:18.154Z,1001.64
2018-11-20T12:45:17.063Z,1001.68
2018-11-20T12:46:17.073Z,1001.61
2018-11-20T12:47:17.088Z,1001.64
2018-11-20T12:48:17.095Z,1001.69
2018-11-20T12:49:19.070Z,1001.59
2018-11-20T12:50:17.132Z,1001.59
2018-11-20T12:51:17.149Z,1001.53
2018-11-20T12:52:17.146Z,1001.45
2018-11-20T12:53:17.200Z,1001.48
2018-11-20T12:54:17.170Z,1001.50
2018-11-20T12:55:17.182Z,1001.54
2018-11-20T12:56:17.196Z,1001.45
2018-11-20T12:57:17.212Z,1001.46
2018-11-20T12:58:17.239Z,1001.48
2018-11-20T12:59:17.231Z,1001.50
2018-11-20T13:00:17.250Z,1001.52
2018-11-20T13:01:17.265Z,1001.60
2018-11-20T13:02:17.286Z,1001.48
2018-11-20T13:03:17.287Z,1001.52
2018-11-20T13:04:17.297Z,1001.48
2018-11-20T13:05:17.303Z,1001.58
2018-11-20T13:06:17.311Z,1001.50
2018-11-20T13:07:17.340Z,1001.53
2018-11-20T13:08:17.340Z,1001.48
2018-11-20T13:09:17.369Z,1001.53
2018-11-20T13:10:17.370Z,1001.55
2018-11-20T13:11:17.383Z,1001.52
2018-11-20T13:12:17.389Z,1001.56
2018-11-20T13:13:18.155Z,1001.48
2018-11-20T13:14:17.412Z,1001.52
2018-11-20T13:15:17.428Z,1001.51
2018-11-20T13:16:17.440Z,1001.62
2018-11-20T13:17:17.448Z,1001.57
2018-11-20T13:18:17.465Z,1001.63
2018-11-20T13:19:17.479Z,1001.57
2018-11-20T13:20:17.502Z,1001.54
2018-11-20T13:21:17.500Z,1001.55
2018-11-20T13:22:17.510Z,1001.51
2018-11-20T13:23:17.522Z,1001.50
2018-11-20T13:24:17.536Z,1001.49
2018-11-20T13:25:17.548Z,1001.61
2018-11-20T13:26:17.557Z,1001.56
2018-11-20T13:27:17.570Z,1001.58
2018-11-20T13:28:17.582Z,1001.58
2018-11-20T13:29:17.596Z,1001.60
2018-11-20T13:30:17.609Z,1001.54
2018-11-20T13:31:17.616Z,1001.51
2018-11-20T13:32:17.630Z,1001.52
2018-11-20T13:33:17.889Z,1001.57
2018-11-20T13:34:20.959Z,1001.36
2018-11-20T13:35:17.664Z,1001.43
2018-11-20T13:36:17.681Z,1001.42
2018-11-20T13:37:18.233Z,1001.36
2018-11-20T13:38:17.708Z,1001.42
2018-11-20T13:39:17.716Z,1001.55
2018-11-20T13:40:17.723Z,1001.59
2018-11-20T13:41:17.739Z,1001.60
2018-11-20T13:42:17.760Z,1001.53
2018-11-20T13:43:17.762Z,1001.57
2018-11-20T13:44:17.774Z,1001.53
2018-11-20T13:45:18.680Z,1001.47
2018-11-20T13:46:17.797Z,1001.58
2018-11-20T13:47:17.810Z,1001.50
2018-11-20T13:48:17.822Z,1001.57
2018-11-20T13:49:17.833Z,1001.55
2018-11-20T13:50:17.844Z,1001.54
2018-11-20T13:51:17.856Z,1001.51
2018-11-20T13:52:17.871Z,1001.44
2018-11-20T13:53:17.880Z,1001.45
2018-11-20T13:54:17.892Z,1001.66
2018-11-20T13:55:17.904Z,1001.46
2018-11-20T13:56:17.912Z,1001.58
2018-11-20T13:57:17.939Z,1001.47
2018-11-20T13:58:17.946Z,1001.42
2018-11-20T13:59:17.949Z,1001.42
2018-11-20T14:00:17.965Z,1001.50
2018-11-20T14:01:17.981Z,1001.43
2018-11-20T14:02:17.985Z,1001.48
2018-11-20T14:03:17.998Z,1001.43
2018-11-20T14:04:18.014Z,1001.43
2018-11-20T14:05:18.022Z,1001.36
2018-11-20T14:06:18.040Z,1001.40
2018-11-20T14:07:18.049Z,1001.34
2018-11-20T14:08:18.059Z,1001.35
2018-11-20T14:09:18.068Z,1001.43
2018-11-20T14:10:18.081Z,1001.43
2018-11-20T14:11:18.092Z,1001.41
2018-11-20T14:12:18.123Z,1001.42
2018-11-20T14:13:18.123Z,1001.35
2018-11-20T14:14:18.139Z,1001.31
2018-11-20T14:15:18.144Z,1001.30
2018-11-20T14:16:18.153Z,1001.30
2018-11-20T14:17:18.181Z,1001.31
2018-11-20T14:18:18.172Z,1001.26
2018-11-20T14:19:18.606Z,1001.24
2018-11-20T14:20:18.196Z,1001.21
2018-11-20T14:21:18.211Z,1001.25
2018-11-20T14:22:18.220Z,1001.23
2018-11-20T14:23:18.245Z,1001.17
2018-11-20T14:24:18.239Z,1001.18
2018-11-20T14:25:18.258Z,1001.25
2018-11-20T14:26:18.268Z,1001.22
2018-11-20T14:27:18.277Z,1001.27
2018-11-20T14:28:18.297Z,1001.22
2018-11-20T14:29:18.301Z,1001.11
2018-11-20T14:30:18.312Z,1001.12
2018-11-20T14:31:18.325Z,1001.16
2018-11-20T14:32:18.340Z,1001.10
2018-11-20T14:33:18.349Z,1001.19
2018-11-20T14:34:18.363Z,1001.13
2018-11-20T14:35:18.370Z,1001.15
2018-11-20T14:36:18.393Z,1001.13
2018-11-20T14:37:18.409Z,1001.06
2018-11-20T14:38:18.413Z,1001.13
2018-11-20T14:39:18.422Z,1001.03
2018-11-20T14:40:18.429Z,1001.08
2018-11-20T14:41:18.450Z,1001.09
2018-11-20T14:42:18.452Z,1001.14
2018-11-20T14:43:18.461Z,1001.15
2018-11-20T14:44:18.476Z,1001.06
2018-11-20T14:45:18.487Z,1001.03
2018-11-20T14:46:18.501Z,1001.08
2018-11-20T14:47:18.506Z,1001.14
2018-11-20T14:48:18.542Z,1001.09
2018-11-20T14:49:18.532Z,1001.18
2018-11-20T14:50:18.559Z,1001.20
2018-11-20T14:51:18.559Z,1001.20
2018-11-20T14:52:18.573Z,1001.14
2018-11-20T14:53:18.587Z,1001.15
2018-11-20T14:54:18.592Z,1001.21
2018-11-20T14:55:18.607Z,1001.20
2018-11-20T14:56:18.617Z,1001.25
2018-11-20T14:57:18.625Z,1001.22
2018-11-20T14:58:18.639Z,1001.15
2018-11-20T14:59:18.661Z,1001.13
2018-11-20T15:00:18.666Z,1001.16
2018-11-20T15:01:18.671Z,1001.14
2018-11-20T15:02:18.688Z,1001.15
2018-11-20T15:03:18.706Z,1001.20
2018-11-20T15:04:18.713Z,1001.22
2018-11-20T15:05:18.720Z,1001.16
2018-11-20T15:06:18.731Z,1001.16
2018-11-20T15:07:18.750Z,1001.23
2018-11-20T15:08:18.751Z,1001.20
2018-11-20T15:09:18.767Z,1001.20
2018-11-20T15:10:18.784Z,1001.20
2018-11-20T15:11:18.784Z,1001.22
2018-11-20T15:12:18.806Z,1001.21
2018-11-20T15:13:18.812Z,1001.18
2018-11-20T15:14:18.839Z,1001.22
2018-11-20T15:15:18.838Z,1001.23
2018-11-20T15:16:18.843Z,1001.32
2018-11-20T15:17:18.859Z,1001.25
2018-11-20T15:18:18.873Z,1001.21
2018-11-20T15:19:18.881Z,1001.25
2018-11-20T15:20:18.894Z,1001.17
2018-11-20T15:21:18.912Z,1001.17
2018-11-20T15:22:18.917Z,1001.10
2018-11-20T15:23:18.927Z,1001.18
2018-11-20T15:24:18.939Z,1001.11
2018-11-20T15:25:18.963Z,1001.19
2018-11-20T15:26:18.973Z,1001.15
2018-11-20T15:27:18.973Z,1001.15
2018-11-20T15:28:18.983Z,1001.15
2018-11-20T15:29:19.003Z,1001.14
2018-11-20T15:30:19.012Z,1001.21
2018-11-20T15:31:19.017Z,1001.18
2018-11-20T15:32:19.041Z,1001.13
2018-11-20T15:33:19.042Z,1001.05
2018-11-20T15:34:19.055Z,1001.16
2018-11-20T15:35:19.064Z,1001.20
2018-11-20T15:36:19.077Z,1001.19
2018-11-20T15:37:19.089Z,1001.15
2018-11-20T15:38:19.106Z,1001.19
2018-11-20T15:39:19.127Z,1001.18
2018-11-20T15:40:19.130Z,1001.18
2018-11-20T15:41:19.136Z,1001.16
2018-11-20T15:42:19.149Z,1001.21
2018-11-20T15:43:19.172Z,1001.15
2018-11-20T15:44:19.171Z,1001.24